الصفحة الرئيسية
METAR-TAF:

METAR-TAF

مطار :

ديرينغ, ألاسكا, الولايات المتحدة

دائرة عرض: 66-05N, خط طول: 162-45W, ارتفاع: 5 متر

مراقبة الطقس الحالي

تاريخ ووقت الإصدار 36 دقيقة قبل الساعة 00:53UTC
ريح 7 عقدة من الشمال الشرقي
درجة الحرارة 10°درجة مئوية
الرطوبة 76%
ضغط 1009 hPa
الرؤية: 16.1 كم
سماء صافية

METAR: PADE 180053Z AUTO 04007KT 10SM CLR 10/06 A2980 RMK AO2 SLP093 T01000056 TSNO $

زمن: 17:29 (01:29 UTC)


TAF: مفقودة

أرصاد الطقس والتوقعات من أكثر من 4000 مطار (تقارير الطقس للمطار METAR والتنبؤ بالطقس بالمطارTAF).

المحطات المتاحة هي النقط الصفراء والحمراء على الخريطة.

حرك المؤشر فوق النقطة لمعرفة اسم المحطة.

ثم انقر لمعرفة أرصاد وتوقعات الطقس.

لتغيير الخارطة: اضغط على الأزرار الخضراء مع رمز الصليب الأسود للتكبير. على الزر الأخضر مع شرطة للتصغير، أو على الأسهم الخضراء للخرائط المجاورة.


METAR-TAF: